Time;durP1;ratioP1;P1;durP2;ratioP2;P2;SDS_P1;SDS_P2;PMS_P1;PMS_P2;Temp;Humidity;BMP_temperature;BMP_pressure;BME280_temperature;BME280_humidity;BME280_pressure;Samples;Min_cycle;Max_cycle;Signal;HPM_P1;HPM_P2
2022/01/23 00:02:08;;;;;;;46.30;30.38;;;;;;;;;;4884028;29;20053;-74
2022/01/23 00:04:36;;;;;;;54.22;31.80;;;;;;;;;;4894482;29;20063;-74
2022/01/23 00:07:06;;;;;;;56.30;31.02;;;;;;;;;;4910122;29;20088;-75
2022/01/23 00:09:33;;;;;;;54.83;35.08;;;;;;;;;;4896811;29;20083;-74
2022/01/23 00:12:05;;;;;;;50.17;33.72;;;;;;;;;;4911228;29;20041;-74
2022/01/23 00:17:21;;;;;;;47.28;35.80;;;;;;;;;;4908894;29;20458;-74
2022/01/23 00:19:52;;;;;;;51.55;35.67;;;;;;;;;;4896697;29;20512;-74
2022/01/23 00:22:28;;;;;;;54.92;33.97;;;;;;;;;;4910930;29;20044;-74
2022/01/23 00:30:28;;;;;;;44.00;31.05;;;;;;;;;;4895187;29;20406;-74
2022/01/23 00:33:00;;;;;;;43.80;33.45;;;;;;;;;;4910728;29;20065;-74
2022/01/23 00:35:28;;;;;;;46.60;32.65;;;;;;;;;;4910741;29;20063;-74
2022/01/23 00:37:55;;;;;;;46.38;32.05;;;;;;;;;;4911136;29;20049;-74
2022/01/23 00:40:23;;;;;;;46.80;31.65;;;;;;;;;;4895268;29;20524;-77
2022/01/23 00:42:53;;;;;;;46.10;33.80;;;;;;;;;;4894786;29;20071;-74
2022/01/23 00:48:07;;;;;;;53.83;33.85;;;;;;;;;;4896365;29;20120;-74
2022/01/23 00:50:37;;;;;;;54.83;36.55;;;;;;;;;;4894934;29;20056;-74
2022/01/23 00:53:09;;;;;;;62.55;36.97;;;;;;;;;;4894827;29;20140;-74
2022/01/23 00:55:38;;;;;;;55.50;35.22;;;;;;;;;;4910543;29;20076;-74
2022/01/23 00:58:05;;;;;;;59.40;35.10;;;;;;;;;;4910841;29;20510;-74
2022/01/23 01:00:32;;;;;;;52.63;33.85;;;;;;;;;;4913604;29;20140;-74
2022/01/23 01:02:59;;;;;;;56.70;36.50;;;;;;;;;;4898365;29;20068;-74
2022/01/23 01:05:26;;;;;;;52.97;35.75;;;;;;;;;;4898321;29;20059;-74
2022/01/23 01:07:55;;;;;;;52.42;31.90;;;;;;;;;;4900024;29;20048;-74
2022/01/23 01:10:32;;;;;;;53.08;34.95;;;;;;;;;;4913884;29;20045;-74
2022/01/23 01:13:01;;;;;;;49.92;34.55;;;;;;;;;;4899923;29;20052;-74
2022/01/23 01:15:58;;;;;;;50.03;34.63;;;;;;;;;;4897995;29;20056;-75
2022/01/23 01:32:24;;;;;;;49.17;32.88;;;;;;;;;;4901379;29;20505;-76
2022/01/23 01:35:03;;;;;;;39.30;31.95;;;;;;;;;;4897652;29;20100;-75
2022/01/23 01:37:30;;;;;;;51.85;33.00;;;;;;;;;;4897664;29;20147;-77
2022/01/23 01:39:57;;;;;;;48.63;30.38;;;;;;;;;;4916285;29;20080;-75
2022/01/23 01:42:24;;;;;;;44.53;29.60;;;;;;;;;;4901147;29;20045;-74
2022/01/23 01:44:51;;;;;;;48.65;28.20;;;;;;;;;;4917055;29;20056;-74
2022/01/23 01:47:20;;;;;;;34.78;28.75;;;;;;;;;;4917185;29;20056;-75
2022/01/23 01:49:52;;;;;;;35.20;27.25;;;;;;;;;;4901034;29;20107;-74
2022/01/23 01:52:19;;;;;;;37.47;26.52;;;;;;;;;;4916918;29;20058;-74
2022/01/23 01:54:48;;;;;;;35.63;25.52;;;;;;;;;;4916538;29;20516;-74
2022/01/23 01:57:19;;;;;;;39.90;28.13;;;;;;;;;;4916231;29;20573;-74
2022/01/23 02:08:31;;;;;;;36.22;28.42;;;;;;;;;;4916305;29;20048;-74
2022/01/23 02:11:09;;;;;;;35.17;27.33;;;;;;;;;;4916115;29;20056;-74
2022/01/23 02:13:52;;;;;;;35.20;26.77;;;;;;;;;;4915782;29;20048;-74
2022/01/23 02:25:28;;;;;;;44.38;29.65;;;;;;;;;;4895739;29;20063;-73
2022/01/23 02:55:16;;;;;;;33.95;26.83;;;;;;;;;;4915109;29;20147;-74
2022/01/23 03:00:16;;;;;;;32.72;23.55;;;;;;;;;;4915053;29;20529;-73
2022/01/23 03:03:23;;;;;;;35.88;24.35;;;;;;;;;;4915140;29;20444;-73
2022/01/23 03:09:07;;;;;;;30.73;24.70;;;;;;;;;;4900498;29;20055;-73
2022/01/23 03:14:17;;;;;;;33.15;24.77;;;;;;;;;;4911154;29;20045;-74
2022/01/23 03:26:01;;;;;;;34.30;24.08;;;;;;;;;;4894700;29;20536;-74
2022/01/23 03:30:21;;;;;;;35.50;26.05;;;;;;;;;;4913965;29;20582;-74
2022/01/23 03:32:50;;;;;;;35.97;26.60;;;;;;;;;;4915993;29;20127;-73
2022/01/23 03:35:18;;;;;;;38.22;28.33;;;;;;;;;;4913585;29;20119;-74
2022/01/23 03:37:48;;;;;;;36.17;27.15;;;;;;;;;;4895365;29;20130;-74
2022/01/23 03:40:16;;;;;;;34.15;24.90;;;;;;;;;;4898675;29;20040;-74
2022/01/23 03:42:46;;;;;;;37.70;23.35;;;;;;;;;;4914866;29;20068;-73
2022/01/23 03:50:52;;;;;;;28.75;23.15;;;;;;;;;;4876600;29;20057;-73
2022/01/23 03:53:33;;;;;;;33.42;23.48;;;;;;;;;;4912641;29;20055;-74
2022/01/23 03:56:00;;;;;;;35.67;24.08;;;;;;;;;;4915973;29;20051;-74
2022/01/23 03:58:29;;;;;;;28.88;22.00;;;;;;;;;;4913764;29;20056;-74
2022/01/23 04:00:56;;;;;;;32.85;21.20;;;;;;;;;;4914382;29;20082;-73
2022/01/23 04:03:24;;;;;;;29.63;23.98;;;;;;;;;;4898199;29;20088;-74
2022/01/23 04:05:52;;;;;;;28.30;20.88;;;;;;;;;;4898741;29;20056;-74
2022/01/23 04:08:20;;;;;;;28.58;21.90;;;;;;;;;;4914175;29;20059;-74
2022/01/23 04:10:48;;;;;;;33.25;23.27;;;;;;;;;;4914071;29;20083;-74
2022/01/23 04:13:34;;;;;;;31.75;22.98;;;;;;;;;;4914053;29;20055;-74
2022/01/23 04:16:29;;;;;;;29.92;22.40;;;;;;;;;;4914821;29;20054;-74
2022/01/23 04:45:17;;;;;;;35.28;24.40;;;;;;;;;;4918103;29;20056;-74
2022/01/23 05:00:34;;;;;;;28.83;20.58;;;;;;;;;;4914524;29;20052;-74
2022/01/23 05:06:09;;;;;;;30.13;23.92;;;;;;;;;;4899062;29;20059;-73
2022/01/23 05:09:12;;;;;;;34.83;22.90;;;;;;;;;;4876335;29;20151;-74
2022/01/23 05:11:55;;;;;;;31.95;21.95;;;;;;;;;;4906788;29;20124;-74
2022/01/23 05:14:44;;;;;;;31.30;22.45;;;;;;;;;;4914504;29;20052;-74
2022/01/23 05:17:14;;;;;;;31.70;23.65;;;;;;;;;;4911292;29;20052;-73
2022/01/23 05:19:41;;;;;;;28.48;22.70;;;;;;;;;;4901637;29;20091;-72
2022/01/23 05:25:26;;;;;;;32.47;24.13;;;;;;;;;;4902379;29;20052;-74
2022/01/23 05:27:43;;;;;;;30.83;21.85;;;;;;;;;;4899429;29;20446;-75
2022/01/23 05:30:11;;;;;;;28.73;21.75;;;;;;;;;;4902594;29;20047;-74
2022/01/23 05:32:41;;;;;;;28.95;22.83;;;;;;;;;;4901452;29;20061;-74
2022/01/23 05:35:10;;;;;;;26.55;22.13;;;;;;;;;;4883162;29;20056;-74
2022/01/23 05:37:38;;;;;;;26.88;21.10;;;;;;;;;;4898385;29;20450;-74
2022/01/23 05:40:10;;;;;;;34.40;24.10;;;;;;;;;;4897817;29;20056;-74
2022/01/23 05:42:42;;;;;;;32.35;21.40;;;;;;;;;;4899095;29;20520;-73
2022/01/23 05:45:10;;;;;;;28.52;20.45;;;;;;;;;;4894522;29;20056;-73
2022/01/23 05:48:16;;;;;;;31.35;24.45;;;;;;;;;;4880830;29;20056;-74
2022/01/23 05:50:52;;;;;;;28.27;21.63;;;;;;;;;;4895491;29;20051;-74
2022/01/23 05:53:38;;;;;;;32.25;25.73;;;;;;;;;;4895988;29;20131;-74
2022/01/23 05:56:23;;;;;;;38.08;27.90;;;;;;;;;;4877976;29;20204;-74
2022/01/23 05:59:21;;;;;;;46.22;30.30;;;;;;;;;;4875133;29;20522;-73
2022/01/23 06:01:53;;;;;;;42.85;28.35;;;;;;;;;;4896840;29;20080;-74
2022/01/23 06:04:27;;;;;;;36.40;29.00;;;;;;;;;;4895666;29;20088;-73
2022/01/23 06:07:03;;;;;;;44.75;31.17;;;;;;;;;;4888431;29;20059;-75
2022/01/23 06:09:31;;;;;;;40.20;28.77;;;;;;;;;;4909694;29;20109;-73
2022/01/23 06:11:58;;;;;;;39.88;28.45;;;;;;;;;;4909653;29;20454;-73
2022/01/23 06:14:26;;;;;;;44.58;31.95;;;;;;;;;;4895740;29;20055;-72
2022/01/23 06:16:54;;;;;;;48.63;32.42;;;;;;;;;;4909185;29;20052;-73
2022/01/23 06:19:39;;;;;;;51.78;33.78;;;;;;;;;;4893622;29;20064;-72
2022/01/23 06:22:25;;;;;;;48.42;32.97;;;;;;;;;;4895137;29;20907;-74
2022/01/23 06:25:13;;;;;;;52.63;34.00;;;;;;;;;;4895538;29;20063;-73
2022/01/23 06:28:02;;;;;;;65.72;35.17;;;;;;;;;;4894638;29;20057;-73
2022/01/23 06:30:29;;;;;;;98.85;43.28;;;;;;;;;;4892338;29;20056;-73
2022/01/23 06:32:56;;;;;;;105.18;43.17;;;;;;;;;;4895906;29;20104;-73
2022/01/23 06:35:23;;;;;;;117.28;46.38;;;;;;;;;;4895454;29;20391;-72
2022/01/23 06:37:50;;;;;;;170.68;47.75;;;;;;;;;;4891466;29;20528;-73
2022/01/23 06:40:17;;;;;;;152.52;48.90;;;;;;;;;;4893937;29;20041;-73
2022/01/23 06:43:02;;;;;;;176.77;49.17;;;;;;;;;;4882761;29;20119;-75
2022/01/23 06:45:41;;;;;;;91.88;43.30;;;;;;;;;;4895238;29;20050;-75
2022/01/23 06:48:09;;;;;;;94.53;48.50;;;;;;;;;;4895424;29;20056;-76
2022/01/23 06:50:36;;;;;;;147.38;46.00;;;;;;;;;;4907918;29;20068;-75
2022/01/23 06:53:03;;;;;;;134.38;45.47;;;;;;;;;;4910736;29;20479;-74
2022/01/23 06:55:30;;;;;;;102.80;43.83;;;;;;;;;;4895368;29;20093;-75
2022/01/23 06:58:00;;;;;;;78.15;44.30;;;;;;;;;;4895251;29;20474;-74
2022/01/23 07:00:27;;;;;;;108.72;45.42;;;;;;;;;;4861783;29;20052;-74
2022/01/23 07:03:13;;;;;;;120.45;46.70;;;;;;;;;;4912911;29;20143;-74
2022/01/23 07:05:58;;;;;;;121.85;48.17;;;;;;;;;;4904162;29;20164;-74
2022/01/23 07:09:04;;;;;;;70.90;38.65;;;;;;;;;;4892233;29;20052;-74
2022/01/23 07:11:57;;;;;;;121.20;46.30;;;;;;;;;;4852160;29;20064;-74
2022/01/23 07:14:42;;;;;;;166.68;50.03;;;;;;;;;;4887382;29;20067;-74
2022/01/23 07:17:28;;;;;;;85.32;44.08;;;;;;;;;;4900647;29;20052;-75
2022/01/23 07:20:01;;;;;;;85.88;45.60;;;;;;;;;;4867050;29;20059;-74
2022/01/23 07:22:34;;;;;;;82.63;45.20;;;;;;;;;;4898702;29;20055;-77
2022/01/23 07:25:03;;;;;;;103.15;46.88;;;;;;;;;;4888871;29;20083;-73
2022/01/23 07:27:47;;;;;;;82.40;46.72;;;;;;;;;;4896856;29;20511;-73
2022/01/23 07:33:07;;;;;;;166.75;46.53;;;;;;;;;;4878795;29;20104;-74
2022/01/23 07:35:34;;;;;;;73.90;44.72;;;;;;;;;;4902724;29;20492;-75
2022/01/23 07:38:02;;;;;;;101.55;44.65;;;;;;;;;;4895697;29;20461;-75
2022/01/23 07:40:58;;;;;;;70.30;39.33;;;;;;;;;;4902772;29;20060;-75
2022/01/23 07:43:48;;;;;;;68.68;38.05;;;;;;;;;;4905501;29;20084;-76
2022/01/23 07:46:48;;;;;;;76.93;43.45;;;;;;;;;;4870382;29;20547;-74
2022/01/23 07:49:28;;;;;;;74.80;39.88;;;;;;;;;;4868409;29;20055;-74
2022/01/23 07:52:32;;;;;;;65.18;37.13;;;;;;;;;;4868545;29;20056;-74
2022/01/23 07:55:12;;;;;;;81.05;42.50;;;;;;;;;;4901082;29;20063;-75
2022/01/23 07:58:05;;;;;;;75.80;41.25;;;;;;;;;;4912767;29;20481;-73
2022/01/23 08:00:41;;;;;;;66.47;36.38;;;;;;;;;;4897213;29;20072;-77
2022/01/23 08:03:09;;;;;;;73.75;42.67;;;;;;;;;;4912899;29;20055;-78
2022/01/23 08:05:56;;;;;;;68.10;40.90;;;;;;;;;;4906792;29;20067;-79
2022/01/23 08:08:44;;;;;;;70.90;43.08;;;;;;;;;;4873134;29;20076;-75
2022/01/23 08:11:19;;;;;;;68.60;40.70;;;;;;;;;;4911775;29;20083;-75
2022/01/23 08:13:45;;;;;;;71.15;45.05;;;;;;;;;;4912029;29;20136;-74
2022/01/23 08:16:13;;;;;;;66.07;42.60;;;;;;;;;;4903514;29;20048;-77
2022/01/23 08:18:41;;;;;;;65.22;40.80;;;;;;;;;;4910558;29;20048;-77
2022/01/23 08:21:08;;;;;;;66.07;40.40;;;;;;;;;;4906981;29;20038;-77
2022/01/23 08:23:38;;;;;;;70.72;44.53;;;;;;;;;;4913445;29;20436;-78
2022/01/23 08:26:08;;;;;;;68.90;42.05;;;;;;;;;;4914201;29;20083;-77
2022/01/23 08:28:35;;;;;;;66.07;43.33;;;;;;;;;;4897851;29;20441;-76
2022/01/23 08:31:02;;;;;;;73.43;43.80;;;;;;;;;;4896022;29;20131;-75
2022/01/23 08:33:29;;;;;;;82.47;46.83;;;;;;;;;;4909639;29;20052;-74
2022/01/23 08:35:57;;;;;;;74.85;47.13;;;;;;;;;;4911609;29;20061;-72
2022/01/23 08:38:24;;;;;;;69.25;42.92;;;;;;;;;;4913337;29;20818;-76
2022/01/23 08:41:52;;;;;;;73.90;42.53;;;;;;;;;;4914708;29;20046;-73
2022/01/23 08:43:48;;;;;;;65.80;40.50;;;;;;;;;;4891690;29;20044;-71
2022/01/23 08:46:16;;;;;;;73.50;44.05;;;;;;;;;;4896275;29;20134;-70
2022/01/23 08:48:44;;;;;;;72.97;43.47;;;;;;;;;;4897672;29;20102;-74
2022/01/23 08:51:11;;;;;;;72.25;43.42;;;;;;;;;;4910100;29;20056;-73
2022/01/23 08:53:38;;;;;;;68.95;43.92;;;;;;;;;;4893420;29;20048;-78
2022/01/23 08:56:06;;;;;;;65.25;40.13;;;;;;;;;;4908575;29;20576;-71
2022/01/23 08:58:33;;;;;;;65.95;40.58;;;;;;;;;;4912315;29;20472;-69
2022/01/23 09:01:00;;;;;;;66.40;42.22;;;;;;;;;;4895036;29;20062;-70
2022/01/23 09:03:27;;;;;;;76.00;44.38;;;;;;;;;;4912255;29;20139;-77
2022/01/23 09:05:54;;;;;;;71.20;42.03;;;;;;;;;;4914652;29;20122;-75
2022/01/23 09:08:22;;;;;;;74.55;46.42;;;;;;;;;;4913970;29;20059;-77
2022/01/23 09:10:57;;;;;;;76.13;47.65;;;;;;;;;;4907676;29;20059;-81
2022/01/23 09:13:52;;;;;;;67.25;45.08;;;;;;;;;;4913083;29;20044;-75
2022/01/23 09:16:19;;;;;;;67.03;42.17;;;;;;;;;;4909643;29;20060;-81
2022/01/23 09:18:47;;;;;;;59.03;40.17;;;;;;;;;;4910887;29;20041;-78
2022/01/23 09:21:14;;;;;;;72.28;44.05;;;;;;;;;;4901028;29;20052;-87
2022/01/23 09:23:41;;;;;;;67.13;43.08;;;;;;;;;;4897361;29;20091;-79
2022/01/23 09:26:10;;;;;;;67.32;41.03;;;;;;;;;;4917322;29;20051;-83
2022/01/23 09:28:39;;;;;;;69.10;45.28;;;;;;;;;;4903262;29;20071;-80
2022/01/23 09:31:07;;;;;;;76.38;44.90;;;;;;;;;;4916332;29;20060;-81
2022/01/23 09:33:37;;;;;;;82.88;48.25;;;;;;;;;;4899211;29;20052;-79
2022/01/23 09:36:04;;;;;;;63.30;42.28;;;;;;;;;;4897937;29;20058;-82
2022/01/23 09:38:31;;;;;;;61.83;43.17;;;;;;;;;;4916424;29;20056;-82
2022/01/23 09:40:59;;;;;;;69.15;45.20;;;;;;;;;;4915306;29;20055;-79
2022/01/23 09:43:27;;;;;;;73.43;45.83;;;;;;;;;;4915453;29;20048;-82
2022/01/23 09:45:55;;;;;;;71.40;43.58;;;;;;;;;;4898550;29;20489;-81
2022/01/23 09:48:22;;;;;;;64.20;46.90;;;;;;;;;;4899384;29;20986;-77
2022/01/23 09:50:52;;;;;;;73.78;47.78;;;;;;;;;;4915376;29;20046;-78
2022/01/23 09:53:20;;;;;;;87.65;56.40;;;;;;;;;;4898792;29;20068;-78
2022/01/23 09:55:49;;;;;;;80.05;53.15;;;;;;;;;;4898714;29;20055;-80
2022/01/23 09:58:16;;;;;;;92.78;53.58;;;;;;;;;;4898072;29;20429;-77
2022/01/23 10:00:43;;;;;;;84.40;52.60;;;;;;;;;;4897180;29;20055;-79
2022/01/23 10:03:10;;;;;;;90.05;54.90;;;;;;;;;;4899903;29;20517;-76
2022/01/23 10:05:38;;;;;;;95.20;60.03;;;;;;;;;;4896378;29;20052;-75
2022/01/23 10:08:07;;;;;;;97.32;63.97;;;;;;;;;;4897781;29;20049;-74
2022/01/23 10:10:39;;;;;;;99.30;63.05;;;;;;;;;;4914584;29;20128;-74
2022/01/23 10:13:07;;;;;;;103.85;69.38;;;;;;;;;;4915164;29;20504;-73
2022/01/23 10:15:34;;;;;;;118.00;73.22;;;;;;;;;;4911651;29;20040;-73
2022/01/23 10:18:02;;;;;;;110.50;69.53;;;;;;;;;;4899329;29;20071;-75
2022/01/23 10:20:29;;;;;;;102.18;70.30;;;;;;;;;;4914963;29;20123;-76
2022/01/23 10:22:59;;;;;;;113.25;75.75;;;;;;;;;;4913969;29;20501;-76
2022/01/23 10:25:29;;;;;;;106.63;67.55;;;;;;;;;;4896989;29;20051;-75
2022/01/23 10:28:08;;;;;;;95.18;64.22;;;;;;;;;;4897299;29;20083;-76
2022/01/23 10:30:48;;;;;;;84.85;56.78;;;;;;;;;;4914047;29;20063;-71
2022/01/23 10:33:19;;;;;;;80.30;52.00;;;;;;;;;;4912951;29;20048;-75
2022/01/23 10:36:12;;;;;;;73.05;47.70;;;;;;;;;;4913256;29;20056;-75
2022/01/23 10:39:01;;;;;;;79.55;48.08;;;;;;;;;;4896314;29;20049;-73
2022/01/23 10:47:44;;;;;;;72.97;46.95;;;;;;;;;;4898420;29;20048;-76
2022/01/23 10:49:59;;;;;;;72.50;50.47;;;;;;;;;;4911356;29;20138;-78
2022/01/23 10:52:32;;;;;;;75.60;47.22;;;;;;;;;;4913194;29;20075;-81
2022/01/23 10:55:01;;;;;;;72.82;45.80;;;;;;;;;;4915061;29;20091;-81
2022/01/23 10:57:43;;;;;;;71.05;48.80;;;;;;;;;;4897131;29;20044;-81
2022/01/23 11:00:25;;;;;;;74.88;51.63;;;;;;;;;;4890818;29;20059;-79
2022/01/23 11:02:54;;;;;;;75.68;51.30;;;;;;;;;;4911563;29;20055;-79
2022/01/23 11:05:31;;;;;;;77.85;46.50;;;;;;;;;;4914007;29;20060;-85
2022/01/23 11:07:58;;;;;;;79.00;47.40;;;;;;;;;;4915293;29;20071;-83
2022/01/23 11:10:26;;;;;;;82.25;50.03;;;;;;;;;;4913092;29;20047;-81
2022/01/23 11:18:14;;;;;;;79.00;48.90;;;;;;;;;;4902118;29;20086;-81
2022/01/23 11:20:47;;;;;;;83.97;53.33;;;;;;;;;;4914875;29;20044;-83
2022/01/23 11:23:27;;;;;;;89.53;52.17;;;;;;;;;;4913679;29;20063;-83
2022/01/23 11:25:57;;;;;;;73.90;51.60;;;;;;;;;;4912438;29;20135;-84
2022/01/23 11:28:32;;;;;;;80.05;52.95;;;;;;;;;;4914099;29;20048;-80
2022/01/23 11:31:00;;;;;;;75.25;51.58;;;;;;;;;;4915050;29;20100;-80
2022/01/23 11:33:27;;;;;;;76.80;48.22;;;;;;;;;;4915342;29;20198;-83
2022/01/23 11:35:54;;;;;;;76.35;48.83;;;;;;;;;;4899653;29;20123;-81
2022/01/23 11:38:22;;;;;;;77.50;48.78;;;;;;;;;;4897563;29;20056;-82
2022/01/23 11:54:50;;;;;;;88.75;58.92;;;;;;;;;;4904755;29;20044;-77
2022/01/23 11:57:45;;;;;;;87.22;56.25;;;;;;;;;;4898191;29;20135;-78
2022/01/23 12:00:24;;;;;;;87.85;59.58;;;;;;;;;;4897257;29;20072;-76
2022/01/23 12:03:17;;;;;;;80.88;59.92;;;;;;;;;;4915075;29;20079;-77
2022/01/23 12:05:49;;;;;;;90.60;60.25;;;;;;;;;;4912477;29;20545;-78
2022/01/23 12:08:27;;;;;;;88.72;56.58;;;;;;;;;;4897731;29;20462;-75
2022/01/23 12:17:05;;;;;;;93.32;61.03;;;;;;;;;;4915611;29;20409;-78
2022/01/23 12:19:46;;;;;;;102.38;63.78;;;;;;;;;;4914323;29;20074;-76
2022/01/23 12:22:26;;;;;;;86.63;60.97;;;;;;;;;;4913875;29;20052;-76
2022/01/23 12:24:56;;;;;;;93.18;63.17;;;;;;;;;;4913792;29;20425;-76
2022/01/23 12:27:28;;;;;;;105.47;66.88;;;;;;;;;;4915624;29;20052;-77
2022/01/23 12:30:31;;;;;;;93.63;61.88;;;;;;;;;;4915204;29;20080;-76
2022/01/23 12:33:28;;;;;;;96.78;59.95;;;;;;;;;;4914336;29;20059;-76
2022/01/23 12:36:12;;;;;;;87.28;55.75;;;;;;;;;;4914243;29;20051;-77
2022/01/23 12:38:43;;;;;;;87.75;58.80;;;;;;;;;;4915708;29;20063;-76
2022/01/23 12:41:21;;;;;;;87.28;55.38;;;;;;;;;;4899099;29;20080;-80
2022/01/23 12:43:49;;;;;;;90.95;59.28;;;;;;;;;;4914632;29;20095;-76
2022/01/23 12:46:40;;;;;;;90.88;55.95;;;;;;;;;;4914965;29;20055;-81
2022/01/23 12:49:17;;;;;;;99.95;63.53;;;;;;;;;;4909091;29;20506;-82
2022/01/23 12:51:45;;;;;;;89.53;58.05;;;;;;;;;;4915896;29;20048;-79
2022/01/23 12:54:22;;;;;;;86.82;59.45;;;;;;;;;;4914846;29;20048;-80
2022/01/23 12:56:51;;;;;;;89.65;57.65;;;;;;;;;;4902878;29;20062;-80
2022/01/23 12:59:27;;;;;;;92.30;60.03;;;;;;;;;;4918952;29;20577;-80
2022/01/23 13:02:03;;;;;;;86.60;58.63;;;;;;;;;;4919282;29;20141;-80
2022/01/23 13:04:52;;;;;;;74.85;50.70;;;;;;;;;;4917984;29;20568;-79
2022/01/23 13:08:19;;;;;;;82.45;52.05;;;;;;;;;;4918502;29;20063;-81
2022/01/23 13:10:30;;;;;;;81.03;57.42;;;;;;;;;;4905371;29;20054;-80
2022/01/23 13:13:17;;;;;;;81.20;53.77;;;;;;;;;;4918572;29;20143;-78
2022/01/23 13:16:01;;;;;;;78.45;51.00;;;;;;;;;;4917143;29;20417;-79
2022/01/23 13:30:20;;;;;;;83.05;54.63;;;;;;;;;;4914432;29;20459;-72
2022/01/23 13:32:19;;;;;;;87.13;56.50;;;;;;;;;;4906400;29;20056;-70
2022/01/23 13:34:49;;;;;;;80.00;54.22;;;;;;;;;;4914883;29;20142;-72
2022/01/23 13:37:19;;;;;;;78.30;53.97;;;;;;;;;;4915109;29;20135;-72
2022/01/23 13:40:01;;;;;;;89.57;58.85;;;;;;;;;;4897390;29;20072;-72
2022/01/23 13:42:49;;;;;;;89.93;56.40;;;;;;;;;;4888810;29;20063;-70
2022/01/23 14:00:14;;;;;;;86.30;59.22;;;;;;;;;;4914670;29;20051;-72
2022/01/23 14:02:47;;;;;;;91.03;60.28;;;;;;;;;;4914189;29;20044;-72
2022/01/23 14:05:29;;;;;;;90.45;61.47;;;;;;;;;;4915575;29;20056;-73
2022/01/23 14:07:59;;;;;;;78.15;56.38;;;;;;;;;;4900490;29;20067;-72
2022/01/23 14:10:38;;;;;;;86.50;56.85;;;;;;;;;;4917012;29;20052;-71
2022/01/23 14:13:15;;;;;;;91.72;60.35;;;;;;;;;;4916222;29;20481;-74
2022/01/23 14:15:46;;;;;;;88.65;57.28;;;;;;;;;;4915351;29;20044;-72
2022/01/23 14:18:20;;;;;;;86.38;58.90;;;;;;;;;;4909879;29;20059;-72
2022/01/23 14:21:11;;;;;;;95.13;64.47;;;;;;;;;;4904663;29;20057;-72
2022/01/23 14:23:38;;;;;;;90.35;58.88;;;;;;;;;;4912265;29;20103;-72
2022/01/23 14:26:08;;;;;;;90.75;57.20;;;;;;;;;;4915673;29;20621;-72
2022/01/23 14:28:45;;;;;;;91.72;57.17;;;;;;;;;;4916774;29;20063;-72
2022/01/23 14:31:22;;;;;;;79.60;56.78;;;;;;;;;;4915133;29;20075;-72
2022/01/23 14:33:55;;;;;;;84.28;59.80;;;;;;;;;;4916803;29;20055;-72
2022/01/23 14:36:32;;;;;;;90.65;58.28;;;;;;;;;;4915410;29;20066;-73
2022/01/23 14:39:00;;;;;;;84.82;56.50;;;;;;;;;;4915384;29;20131;-73
2022/01/23 14:41:30;;;;;;;94.47;62.22;;;;;;;;;;4915537;29;20048;-73
2022/01/23 14:43:57;;;;;;;89.07;57.33;;;;;;;;;;4914864;29;20402;-73
2022/01/23 14:46:25;;;;;;;87.90;59.03;;;;;;;;;;4915588;29;20109;-72
2022/01/23 14:48:59;;;;;;;99.97;62.53;;;;;;;;;;4915171;29;20573;-72
2022/01/23 14:51:29;;;;;;;94.82;63.20;;;;;;;;;;4915781;29;20078;-72
2022/01/23 14:53:56;;;;;;;84.10;59.08;;;;;;;;;;4915415;29;20399;-73
2022/01/23 14:56:25;;;;;;;93.15;63.03;;;;;;;;;;4915109;29;20044;-71
2022/01/23 14:58:52;;;;;;;86.05;58.00;;;;;;;;;;4915152;29;20060;-72
2022/01/23 15:01:19;;;;;;;93.68;58.67;;;;;;;;;;4915072;29;20060;-73
2022/01/23 15:03:52;;;;;;;95.72;60.30;;;;;;;;;;4900182;29;20129;-72
2022/01/23 15:06:30;;;;;;;97.30;59.10;;;;;;;;;;4915261;29;20394;-70
2022/01/23 15:09:09;;;;;;;89.05;62.03;;;;;;;;;;4915207;29;20048;-71
2022/01/23 15:11:37;;;;;;;89.15;57.92;;;;;;;;;;4914521;29;20107;-72
2022/01/23 15:14:06;;;;;;;91.22;58.80;;;;;;;;;;4915403;29;20076;-72
2022/01/23 15:16:33;;;;;;;85.20;57.17;;;;;;;;;;4914566;29;20048;-72
2022/01/23 15:19:01;;;;;;;108.55;74.30;;;;;;;;;;4914750;29;20071;-73
2022/01/23 15:21:28;;;;;;;94.78;62.28;;;;;;;;;;4915262;29;20048;-72
2022/01/23 15:23:56;;;;;;;115.88;77.45;;;;;;;;;;4915621;29;20529;-72
2022/01/23 15:26:25;;;;;;;98.50;62.75;;;;;;;;;;4914849;29;20466;-72
2022/01/23 15:28:54;;;;;;;88.95;63.55;;;;;;;;;;4914418;29;20052;-71
2022/01/23 15:31:23;;;;;;;103.80;65.68;;;;;;;;;;4914630;29;20052;-72
2022/01/23 15:33:51;;;;;;;95.40;63.83;;;;;;;;;;4912204;29;20052;-73
2022/01/23 15:36:19;;;;;;;102.70;64.13;;;;;;;;;;4918693;29;20580;-71
2022/01/23 15:38:46;;;;;;;96.80;58.80;;;;;;;;;;4922142;29;20150;-70
2022/01/23 15:41:14;;;;;;;112.05;68.88;;;;;;;;;;4906502;29;20072;-73
2022/01/23 15:43:41;;;;;;;118.55;78.05;;;;;;;;;;4910250;29;20046;-73
2022/01/23 15:46:09;;;;;;;125.68;76.95;;;;;;;;;;4917388;29;20052;-73
2022/01/23 15:48:37;;;;;;;161.27;102.93;;;;;;;;;;4918223;29;20063;-71
2022/01/23 15:51:04;;;;;;;180.68;108.43;;;;;;;;;;4914938;29;20044;-71
2022/01/23 15:53:31;;;;;;;112.72;71.40;;;;;;;;;;4927263;29;20052;-72
2022/01/23 15:55:59;;;;;;;98.15;64.20;;;;;;;;;;4900477;29;20071;-72
2022/01/23 15:58:28;;;;;;;112.30;63.75;;;;;;;;;;4900731;29;20051;-71
2022/01/23 16:00:56;;;;;;;106.63;62.53;;;;;;;;;;4919085;29;20058;-70
2022/01/23 16:03:26;;;;;;;111.57;62.92;;;;;;;;;;4917187;29;20056;-71
2022/01/23 16:05:54;;;;;;;103.40;61.47;;;;;;;;;;4890625;29;20072;-70
2022/01/23 16:08:22;;;;;;;124.95;73.13;;;;;;;;;;4918367;29;20056;-71
2022/01/23 16:10:49;;;;;;;99.32;61.97;;;;;;;;;;4919660;29;20040;-70
2022/01/23 16:13:16;;;;;;;591.63;389.10;;;;;;;;;;4917771;29;20482;-74
2022/01/23 16:15:43;;;;;;;218.05;127.80;;;;;;;;;;4908576;29;20528;-71
2022/01/23 16:18:12;;;;;;;122.90;76.75;;;;;;;;;;4904927;29;20073;-74
2022/01/23 16:20:41;;;;;;;114.15;73.20;;;;;;;;;;4915487;29;20061;-74
2022/01/23 16:23:09;;;;;;;126.93;84.57;;;;;;;;;;4925338;29;20044;-73
2022/01/23 16:25:57;;;;;;;121.63;74.68;;;;;;;;;;4920075;29;20037;-73
2022/01/23 16:28:24;;;;;;;180.23;107.30;;;;;;;;;;4921794;29;20049;-70
2022/01/23 16:30:54;;;;;;;157.60;100.75;;;;;;;;;;4907952;29;20123;-73
2022/01/23 16:33:26;;;;;;;126.50;81.28;;;;;;;;;;4892221;29;20044;-72
2022/01/23 16:35:55;;;;;;;128.88;80.20;;;;;;;;;;4908389;29;20056;-71
2022/01/23 16:38:23;;;;;;;119.38;76.63;;;;;;;;;;4905886;29;20382;-70
2022/01/23 16:40:54;;;;;;;122.38;71.03;;;;;;;;;;4915285;29;20063;-72
2022/01/23 16:43:24;;;;;;;122.15;69.90;;;;;;;;;;4915888;29;20086;-71
2022/01/23 16:45:52;;;;;;;123.57;69.22;;;;;;;;;;4918987;29;20132;-74
2022/01/23 16:48:21;;;;;;;172.40;66.55;;;;;;;;;;4925519;29;20046;-75
2022/01/23 16:50:55;;;;;;;114.20;64.53;;;;;;;;;;4919728;29;20108;-72
2022/01/23 16:53:22;;;;;;;129.18;68.15;;;;;;;;;;4921759;29;20044;-71
2022/01/23 16:55:56;;;;;;;163.93;73.70;;;;;;;;;;4927450;29;20048;-71
2022/01/23 16:58:29;;;;;;;135.45;72.28;;;;;;;;;;4924128;29;20080;-72
2022/01/23 17:00:59;;;;;;;193.98;73.20;;;;;;;;;;4924829;29;20044;-70
2022/01/23 17:03:27;;;;;;;114.78;67.82;;;;;;;;;;4915662;29;20096;-69
2022/01/23 17:05:55;;;;;;;117.40;69.72;;;;;;;;;;4929786;29;20063;-70
2022/01/23 17:08:23;;;;;;;168.38;71.07;;;;;;;;;;4933841;29;20115;-71
2022/01/23 17:10:52;;;;;;;263.35;82.30;;;;;;;;;;4929120;29;20052;-73
2022/01/23 17:13:20;;;;;;;111.07;66.90;;;;;;;;;;4915025;29;20071;-73
2022/01/23 17:15:49;;;;;;;244.10;93.57;;;;;;;;;;4920606;29;20071;-70
2022/01/23 17:18:16;;;;;;;245.35;107.28;;;;;;;;;;4929613;29;20059;-70
2022/01/23 17:20:44;;;;;;;146.05;78.40;;;;;;;;;;4922569;29;20049;-71
2022/01/23 17:23:11;;;;;;;364.90;90.15;;;;;;;;;;4921383;29;20075;-70
2022/01/23 17:25:38;;;;;;;119.25;69.05;;;;;;;;;;4921628;29;20059;-70
2022/01/23 17:28:06;;;;;;;458.02;105.22;;;;;;;;;;4920738;29;20521;-69
2022/01/23 17:30:33;;;;;;;172.15;86.45;;;;;;;;;;4930788;29;20055;-70
2022/01/23 17:33:01;;;;;;;175.38;93.53;;;;;;;;;;4908856;29;20048;-70
2022/01/23 17:35:28;;;;;;;207.82;94.53;;;;;;;;;;4914967;29;20075;-75
2022/01/23 17:37:57;;;;;;;203.15;90.63;;;;;;;;;;4914377;29;20136;-75
2022/01/23 17:40:25;;;;;;;192.55;93.50;;;;;;;;;;4902022;29;20052;-81
2022/01/23 17:42:52;;;;;;;330.38;98.50;;;;;;;;;;4917799;29;20130;-82
2022/01/23 17:45:28;;;;;;;285.42;101.15;;;;;;;;;;4919491;29;20044;-76
2022/01/23 17:50:33;;;;;;;229.90;100.28;;;;;;;;;;4911879;29;20087;-79
2022/01/23 17:53:01;;;;;;;197.38;106.88;;;;;;;;;;4910822;29;20068;-83
2022/01/23 17:55:29;;;;;;;208.38;114.20;;;;;;;;;;4917694;29;20071;-80
2022/01/23 17:57:57;;;;;;;216.55;113.13;;;;;;;;;;4918130;29;20048;-77
2022/01/23 18:00:24;;;;;;;200.73;108.13;;;;;;;;;;4900986;29;20047;-84
2022/01/23 18:02:57;;;;;;;191.52;96.07;;;;;;;;;;4913250;29;20057;-80
2022/01/23 18:05:26;;;;;;;206.93;86.03;;;;;;;;;;4901713;29;20052;-79
2022/01/23 18:07:53;;;;;;;169.48;86.40;;;;;;;;;;4912298;29;20051;-77
2022/01/23 18:10:20;;;;;;;218.07;86.90;;;;;;;;;;4899475;29;20048;-75